Time;durP1;ratioP1;P1;durP2;ratioP2;P2;SDS_P1;SDS_P2;PMS_P1;PMS_P2;Temp;Humidity;BMP_temperature;BMP_pressure;BME280_temperature;BME280_humidity;BME280_pressure;Samples;Min_cycle;Max_cycle;Signal;HPM_P1;HPM_P2
2022/01/22 00:01:56;;;;;;;32.20;11.65;;;3.90;99.90;;;;;;5023861;28;20126;-75
2022/01/22 00:04:22;;;;;;;29.73;11.25;;;3.90;99.90;;;;;;5046278;28;20111;-76
2022/01/22 00:06:51;;;;;;;28.58;11.07;;;3.90;99.90;;;;;;5030010;28;20072;-76
2022/01/22 00:09:40;;;;;;;33.05;12.05;;;3.90;99.90;;;;;;5053142;28;20094;-76
2022/01/22 00:12:10;;;;;;;23.42;9.65;;;3.90;99.90;;;;;;5057229;28;20225;-76
2022/01/22 00:14:39;;;;;;;25.65;9.77;;;3.90;99.90;;;;;;5048067;28;20053;-75
2022/01/22 00:17:05;;;;;;;26.40;10.90;;;3.90;99.90;;;;;;5025408;28;20132;-76
2022/01/22 00:19:33;;;;;;;31.60;11.60;;;3.90;99.90;;;;;;5034176;28;20046;-76
2022/01/22 00:22:00;;;;;;;36.05;13.48;;;3.90;99.90;;;;;;5007307;28;20091;-76
2022/01/22 00:24:35;;;;;;;31.35;11.13;;;3.90;99.90;;;;;;5024533;28;20523;-76
2022/01/22 00:27:03;;;;;;;29.33;11.20;;;3.90;99.90;;;;;;5040136;28;20052;-76
2022/01/22 00:29:30;;;;;;;31.20;10.50;;;3.90;99.90;;;;;;5041993;28;20053;-75
2022/01/22 00:31:57;;;;;;;28.50;10.70;;;3.90;99.90;;;;;;5023167;28;20472;-75
2022/01/22 00:34:24;;;;;;;34.03;11.77;;;3.90;99.90;;;;;;5023467;28;20053;-75
2022/01/22 00:36:51;;;;;;;21.58;7.75;;;3.90;99.90;;;;;;5040351;28;20037;-75
2022/01/22 00:39:19;;;;;;;28.73;9.65;;;4.00;99.90;;;;;;5042147;28;20065;-76
2022/01/22 00:41:46;;;;;;;22.70;8.32;;;3.90;99.90;;;;;;5044181;28;20476;-77
2022/01/22 00:44:12;;;;;;;31.75;10.25;;;3.90;99.90;;;;;;5040511;28;20103;-76
2022/01/22 00:46:43;;;;;;;32.13;11.75;;;3.90;99.90;;;;;;5030577;22;20045;31
2022/01/22 00:49:09;;;;;;;27.88;10.80;;;3.80;99.90;;;;;;5004211;28;20115;-74
2022/01/22 00:51:36;;;;;;;37.22;12.57;;;3.90;99.90;;;;;;5003444;28;20117;-74
2022/01/22 00:54:03;;;;;;;27.77;10.82;;;3.90;99.90;;;;;;5015367;28;20065;-75
2022/01/22 00:56:30;;;;;;;30.02;10.63;;;3.90;99.90;;;;;;5009803;28;20089;-74
2022/01/22 00:58:56;;;;;;;30.75;9.60;;;3.80;99.90;;;;;;4966300;28;20149;-73
2022/01/22 01:01:23;;;;;;;34.08;11.90;;;3.90;99.90;;;;;;4980958;28;20520;-74
2022/01/22 01:03:50;;;;;;;51.25;14.60;;;3.90;99.90;;;;;;4988600;28;20054;-75
2022/01/22 01:06:17;;;;;;;34.00;11.05;;;3.90;99.90;;;;;;4985162;28;20132;-74
2022/01/22 01:08:44;;;;;;;39.90;13.50;;;3.90;99.90;;;;;;5002393;28;20112;-74
2022/01/22 01:11:13;;;;;;;33.80;12.27;;;3.90;99.90;;;;;;5012410;28;20041;-74
2022/01/22 01:13:45;;;;;;;42.95;13.52;;;3.80;99.90;;;;;;5018945;28;20450;-74
2022/01/22 01:16:19;;;;;;;42.50;13.73;;;3.90;99.90;;;;;;4968699;28;20085;-74
2022/01/22 01:35:16;;;;;;;41.70;12.70;;;3.90;99.90;;;;;;4991191;28;20108;-74
2022/01/22 01:37:43;;;;;;;38.30;12.52;;;3.80;99.90;;;;;;4984016;28;20294;-74
2022/01/22 01:40:12;;;;;;;28.45;9.77;;;3.80;99.90;;;;;;5008599;28;20045;-74
2022/01/22 01:45:08;;;;;;;73.65;16.65;;;3.80;99.90;;;;;;5013338;28;20266;-73
2022/01/22 01:47:46;;;;;;;55.55;16.67;;;3.90;99.90;;;;;;4987667;28;20245;-74
2022/01/22 01:50:13;;;;;;;53.03;14.55;;;3.90;99.90;;;;;;4968147;28;20720;-75
2022/01/22 01:52:48;;;;;;;70.88;16.67;;;3.80;99.90;;;;;;4984718;28;20065;-75
2022/01/22 01:55:32;;;;;;;49.55;12.35;;;3.80;99.90;;;;;;4984370;28;20104;-74
2022/01/22 01:58:04;;;;;;;44.97;14.00;;;3.90;99.90;;;;;;5000659;28;20085;-74
2022/01/22 02:00:34;;;;;;;38.00;11.80;;;3.90;99.90;;;;;;4982661;28;20053;-74
2022/01/22 02:03:03;;;;;;;63.20;16.27;;;3.80;99.90;;;;;;5000751;28;20504;-75
2022/01/22 02:05:36;;;;;;;43.65;13.65;;;3.90;99.90;;;;;;4997561;28;20034;-74
2022/01/22 02:08:03;;;;;;;30.73;10.82;;;3.80;99.90;;;;;;5000459;28;20050;-74
2022/01/22 02:10:44;;;;;;;30.80;8.85;;;3.90;99.90;;;;;;5008674;28;20182;-73
2022/01/22 02:24:35;;;;;;;32.00;9.50;;;3.90;99.90;;;;;;4974434;28;20505;-74
2022/01/22 02:27:02;;;;;;;22.90;8.60;;;3.90;99.90;;;;;;4991480;28;20058;-74
2022/01/22 02:29:34;;;;;;;26.00;9.05;;;3.90;99.90;;;;;;4982832;28;20057;-74
2022/01/22 02:35:28;;;;;;;25.85;9.48;;;3.90;99.90;;;;;;4999215;28;20277;-74
2022/01/22 02:38:01;;;;;;;;;;;3.90;99.90;;;;;;5002320;28;20082;-74
2022/01/22 02:40:34;;;;;;;23.13;8.68;;;4.00;99.90;;;;;;5007874;28;19925;-74
2022/01/22 02:43:01;;;;;;;28.02;9.65;;;4.00;99.90;;;;;;4999574;28;20049;-74
2022/01/22 02:45:28;;;;;;;28.25;9.50;;;4.00;99.90;;;;;;4999127;28;20046;-74
2022/01/22 02:47:55;;;;;;;57.42;12.10;;;4.00;99.90;;;;;;4965871;28;20101;-74
2022/01/22 02:50:22;;;;;;;91.07;14.80;;;4.00;99.90;;;;;;4979521;28;20473;-74
2022/01/22 02:52:49;;;;;;;107.32;18.98;;;4.00;99.90;;;;;;4987156;28;20046;-75
2022/01/22 02:55:16;;;;;;;88.60;17.85;;;4.00;99.90;;;;;;4995609;28;20465;-74
2022/01/22 02:57:45;;;;;;;211.45;24.88;;;4.00;99.90;;;;;;4984496;28;20042;-74
2022/01/22 03:00:17;;;;;;;232.00;25.70;;;4.10;99.90;;;;;;4985291;28;20046;-74
2022/01/22 03:02:47;;;;;;;220.80;26.80;;;4.00;99.90;;;;;;4983506;28;20485;-73
2022/01/22 03:05:15;;;;;;;65.15;12.57;;;4.10;99.90;;;;;;4985652;28;20109;-74
2022/01/22 03:07:44;;;;;;;84.30;15.65;;;4.00;99.90;;;;;;4984378;28;20078;-75
2022/01/22 03:10:14;;;;;;;101.65;17.00;;;4.00;99.90;;;;;;5006369;28;20046;-74
2022/01/22 03:20:44;;;;;;;47.25;9.88;;;4.10;99.90;;;;;;5004091;28;20297;-74
2022/01/22 03:27:19;;;;;;;30.30;9.38;;;4.10;99.90;;;;;;4986481;28;20046;-74
2022/01/22 03:28:56;;;;;;;69.75;13.63;;;4.10;99.90;;;;;;5008629;28;20050;-74
2022/01/22 03:31:23;;;;;;;149.32;23.73;;;4.10;99.90;;;;;;4985184;28;20061;-74
2022/01/22 03:33:50;;;;;;;108.13;18.63;;;4.10;99.90;;;;;;5002380;28;20065;-74
2022/01/22 03:36:19;;;;;;;78.35;14.52;;;4.10;99.90;;;;;;4986037;28;20061;-74
2022/01/22 03:38:48;;;;;;;81.68;15.55;;;4.10;99.90;;;;;;4992804;28;20356;-74
2022/01/22 03:41:15;;;;;;;115.38;19.33;;;4.10;99.90;;;;;;5005113;28;20116;-74
2022/01/22 03:43:48;;;;;;;62.95;13.57;;;4.10;99.90;;;;;;4999090;28;20060;-74
2022/01/22 03:46:15;;;;;;;57.60;12.75;;;4.20;99.90;;;;;;4996603;28;20569;-74
2022/01/22 03:48:41;;;;;;;84.78;15.88;;;4.20;99.90;;;;;;5001162;28;20441;-74
2022/01/22 03:51:08;;;;;;;209.77;24.80;;;4.20;99.90;;;;;;4985917;28;20045;-73
2022/01/22 03:53:35;;;;;;;197.88;23.58;;;4.20;99.90;;;;;;5002209;28;20073;-73
2022/01/22 03:56:04;;;;;;;178.10;23.27;;;4.20;99.90;;;;;;4989920;28;20050;-74
2022/01/22 03:59:01;;;;;;;107.90;18.33;;;4.20;99.90;;;;;;5002838;28;20570;-74
2022/01/22 04:02:25;;;;;;;158.95;19.08;;;4.20;99.90;;;;;;5003384;28;20077;-74
2022/01/22 04:04:55;;;;;;;96.97;14.95;;;4.20;99.90;;;;;;4985859;28;20445;-74
2022/01/22 04:10:01;;;;;;;109.82;17.15;;;4.20;99.90;;;;;;5004783;28;20104;-73
2022/01/22 04:15:12;;;;;;;48.92;11.60;;;4.20;99.90;;;;;;4982978;28;20367;-74
2022/01/22 04:25:43;;;;;;;30.38;9.57;;;4.20;99.90;;;;;;5003439;28;20345;-74
2022/01/22 04:28:12;;;;;;;41.72;11.13;;;4.20;99.90;;;;;;5000415;28;20136;-74
2022/01/22 04:30:39;;;;;;;62.45;13.13;;;4.20;99.90;;;;;;4969114;28;20104;-74
2022/01/22 04:33:05;;;;;;;31.75;9.50;;;4.30;99.90;;;;;;4984312;28;20115;-74
2022/01/22 04:35:33;;;;;;;28.95;8.95;;;4.20;99.90;;;;;;5000102;28;20115;-74
2022/01/22 04:37:59;;;;;;;30.83;9.77;;;4.30;99.90;;;;;;5004474;28;20360;-75
2022/01/22 04:40:27;;;;;;;111.05;14.20;;;4.30;99.90;;;;;;5009163;28;20046;-73
2022/01/22 04:42:54;;;;;;;26.70;8.52;;;4.30;99.90;;;;;;5022646;28;20057;-74
2022/01/22 04:45:38;;;;;;;38.22;10.63;;;4.30;99.90;;;;;;4988429;28;20054;-73
2022/01/22 04:55:49;;;;;;;23.50;7.03;;;4.30;99.90;;;;;;5000717;28;20575;-74
2022/01/22 04:58:15;;;;;;;26.30;8.05;;;4.30;99.90;;;;;;5001734;28;20119;-74
2022/01/22 05:00:45;;;;;;;22.67;6.65;;;4.30;99.90;;;;;;5000198;28;20520;-75
2022/01/22 05:03:44;;;;;;;19.05;6.25;;;4.30;99.90;;;;;;4968607;28;20057;-74
2022/01/22 05:06:30;;;;;;;28.88;7.78;;;4.30;99.90;;;;;;4992488;28;20065;-73
2022/01/22 05:09:15;;;;;;;27.20;7.40;;;4.30;99.90;;;;;;4989208;28;20052;-74
2022/01/22 05:11:51;;;;;;;41.40;9.93;;;4.30;99.90;;;;;;4983670;28;20042;-74
2022/01/22 05:14:18;;;;;;;37.28;10.05;;;4.30;99.90;;;;;;5000540;28;20043;-73
2022/01/22 05:16:45;;;;;;;131.40;18.67;;;4.40;99.90;;;;;;4999952;28;20046;-74
2022/01/22 05:19:34;;;;;;;209.68;24.25;;;4.30;99.90;;;;;;4989199;28;20054;-74
2022/01/22 05:22:14;;;;;;;111.18;16.23;;;4.40;99.90;;;;;;4999905;28;20074;-74
2022/01/22 05:24:46;;;;;;;37.33;10.45;;;4.40;99.90;;;;;;4999420;28;20061;-74
2022/01/22 05:36:56;;;;;;;22.52;6.97;;;4.40;99.90;;;;;;5001789;28;20115;-74
2022/01/22 05:39:10;;;;;;;;;;;4.40;99.90;;;;;;5004105;28;20093;-71
2022/01/22 05:41:39;;;;;;;19.50;6.38;;;4.40;99.90;;;;;;4989686;28;19925;-73
2022/01/22 05:44:07;;;;;;;24.55;7.13;;;4.50;99.90;;;;;;4981923;28;20093;-73
2022/01/22 05:46:34;;;;;;;21.52;6.55;;;4.50;99.90;;;;;;4987681;28;20038;-73
2022/01/22 05:49:02;;;;;;;19.00;6.05;;;4.50;99.90;;;;;;5000886;28;20099;-74
2022/01/22 05:51:29;;;;;;;31.05;7.80;;;4.50;99.90;;;;;;4999472;28;20128;-73
2022/01/22 06:01:57;;;;;;;22.65;6.82;;;4.50;99.90;;;;;;4999162;28;20054;-74
2022/01/22 06:04:24;;;;;;;26.08;7.82;;;4.50;99.90;;;;;;4991486;28;20050;-74
2022/01/22 06:06:58;;;;;;;18.60;5.50;;;4.50;99.90;;;;;;4998058;28;20049;-73
2022/01/22 06:09:26;;;;;;;15.88;5.50;;;4.50;99.90;;;;;;5005728;28;20046;-74
2022/01/22 06:14:44;;;;;;;19.92;6.18;;;4.50;99.90;;;;;;4999743;28;20098;-73
2022/01/22 06:17:11;;;;;;;17.50;5.63;;;4.60;99.90;;;;;;4981813;28;20072;-73
2022/01/22 06:20:06;;;;;;;33.40;7.68;;;4.60;99.90;;;;;;4999882;28;20054;-73
2022/01/22 06:22:34;;;;;;;31.80;7.90;;;4.60;99.90;;;;;;4999003;28;20049;-73
2022/01/22 06:25:01;;;;;;;34.10;8.35;;;4.60;99.90;;;;;;4983816;28;20303;-73
2022/01/22 06:27:28;;;;;;;35.38;9.73;;;4.60;99.90;;;;;;4998696;28;20745;-74
2022/01/22 06:29:56;;;;;;;39.03;9.07;;;4.60;99.90;;;;;;5004028;28;20053;-73
2022/01/22 06:32:22;;;;;;;50.53;11.25;;;4.70;99.90;;;;;;4986774;28;20479;-73
2022/01/22 06:34:49;;;;;;;56.28;10.15;;;4.70;99.90;;;;;;4987489;28;20235;-73
2022/01/22 06:37:16;;;;;;;71.80;12.85;;;4.70;99.90;;;;;;5004031;28;20577;-74
2022/01/22 06:43:07;;;;;;;250.23;23.65;;;4.70;99.90;;;;;;4965515;28;20078;-73
2022/01/22 06:45:46;;;;;;;120.72;15.98;;;4.80;99.90;;;;;;4981348;28;20100;-71
2022/01/22 06:48:13;;;;;;;131.70;17.00;;;4.70;99.90;;;;;;5031033;22;20045;-76
2022/01/22 06:51:06;;;;;;;201.60;20.52;;;4.70;99.90;;;;;;5013304;28;20047;-76
2022/01/22 06:53:36;;;;;;;287.90;26.48;;;4.80;99.90;;;;;;5006208;28;20124;-76
2022/01/22 06:56:05;;;;;;;162.20;16.05;;;4.80;99.90;;;;;;5017239;28;20318;-76
2022/01/22 06:58:47;;;;;;;270.25;23.17;;;4.70;99.90;;;;;;4998277;28;20067;-76
2022/01/22 07:01:15;;;;;;;288.88;22.45;;;4.80;99.90;;;;;;5002692;28;20045;-76
2022/01/22 07:03:56;;;;;;;285.25;23.17;;;4.80;99.90;;;;;;5024950;28;20057;-76
2022/01/22 07:06:46;;;;;;;298.23;25.10;;;4.80;99.90;;;;;;5001780;28;20080;-76
2022/01/22 07:09:14;;;;;;;290.38;26.80;;;4.80;99.90;;;;;;5021988;28;20052;-76
2022/01/22 07:11:40;;;;;;;248.02;23.52;;;4.90;99.90;;;;;;5007177;28;20038;-76
2022/01/22 07:14:08;;;;;;;306.08;27.83;;;4.90;99.90;;;;;;5011430;28;20144;-76
2022/01/22 07:16:35;;;;;;;304.13;28.15;;;4.90;99.90;;;;;;5010755;28;20289;-76
2022/01/22 07:19:38;;;;;;;204.00;23.17;;;4.90;99.90;;;;;;5035337;28;20057;-76
2022/01/22 07:25:07;;;;;;;164.07;23.88;;;4.90;99.90;;;;;;5012739;28;20782;-75
2022/01/22 07:27:35;;;;;;;293.50;31.08;;;5.00;99.90;;;;;;5004269;28;20503;-75
2022/01/22 07:30:02;;;;;;;375.40;35.33;;;4.90;99.90;;;;;;5041265;28;20063;-75
2022/01/22 07:32:35;;;;;;;242.05;26.42;;;4.90;99.90;;;;;;5024653;28;20148;-76
2022/01/22 07:35:04;;;;;;;120.50;18.55;;;5.00;99.90;;;;;;5024852;28;20304;-76
2022/01/22 07:37:31;;;;;;;57.22;11.40;;;5.00;99.90;;;;;;5022914;28;20053;-76
2022/01/22 07:40:10;;;;;;;48.55;14.70;;;5.00;99.90;;;;;;5022405;28;20107;-76
2022/01/22 07:42:56;;;;;;;33.35;10.88;;;4.90;99.90;;;;;;5007470;28;20169;-75
2022/01/22 07:45:43;;;;;;;29.60;10.25;;;4.90;99.90;;;;;;5020100;28;20046;-75
2022/01/22 07:48:16;;;;;;;30.23;10.60;;;4.90;99.90;;;;;;5004283;28;20074;-75
2022/01/22 07:51:02;;;;;;;45.53;12.23;;;4.90;99.90;;;;;;5021325;28;20160;-75
2022/01/22 07:53:29;;;;;;;41.95;13.02;;;4.90;99.90;;;;;;5005629;28;20723;-75
2022/01/22 07:55:59;;;;;;;41.80;13.85;;;4.90;99.90;;;;;;5037454;28;20055;-75
2022/01/22 07:58:26;;;;;;;54.95;16.40;;;4.90;99.90;;;;;;5040807;28;20053;-75
2022/01/22 08:00:53;;;;;;;45.47;13.75;;;5.00;99.90;;;;;;5040699;28;20356;-75
2022/01/22 08:03:20;;;;;;;52.60;15.85;;;5.00;99.90;;;;;;5008810;28;20419;-75
2022/01/22 08:06:19;;;;;;;56.25;15.90;;;5.00;99.90;;;;;;5019206;28;20725;-75
2022/01/22 08:09:05;;;;;;;;;;;5.00;99.90;;;;;;5023095;28;20144;-76
2022/01/22 08:11:50;;;;;;;52.88;13.88;;;4.90;99.90;;;;;;5007266;28;20016;-74
2022/01/22 08:14:17;;;;;;;76.50;18.02;;;4.90;99.90;;;;;;4981590;28;20119;-75
2022/01/22 08:16:46;;;;;;;110.03;20.27;;;5.00;99.90;;;;;;4998730;28;20049;-75
2022/01/22 08:19:14;;;;;;;115.82;20.95;;;5.00;99.90;;;;;;5016988;28;20069;-75
2022/01/22 08:21:42;;;;;;;355.77;35.97;;;5.00;99.90;;;;;;5011557;28;20053;-75
2022/01/22 08:24:28;;;;;;;367.83;34.33;;;5.00;99.90;;;;;;5007839;28;20400;-75
2022/01/22 08:29:38;;;;;;;348.33;33.55;;;5.00;99.90;;;;;;5004293;28;20296;-75
2022/01/22 08:32:57;;;;;;;320.08;35.55;;;5.00;99.90;;;;;;5003993;28;20067;-75
2022/01/22 08:37:45;;;;;;;140.57;21.77;;;5.00;99.90;;;;;;5020695;28;20103;-73
2022/01/22 08:40:12;;;;;;;129.52;21.50;;;5.00;99.90;;;;;;5001808;28;20098;-73
2022/01/22 08:42:39;;;;;;;307.40;34.55;;;5.00;99.90;;;;;;5003769;28;20054;-73
2022/01/22 08:45:08;;;;;;;138.60;20.67;;;5.00;99.90;;;;;;5021421;28;20121;-73
2022/01/22 08:47:38;;;;;;;110.75;20.70;;;5.00;99.90;;;;;;4987328;28;20270;-74
2022/01/22 08:50:05;;;;;;;154.50;23.35;;;4.90;99.90;;;;;;5003435;28;20084;-74
2022/01/22 08:52:36;;;;;;;50.95;14.30;;;5.00;99.90;;;;;;5014433;28;20419;-74
2022/01/22 08:55:05;;;;;;;38.58;13.55;;;5.00;99.90;;;;;;5000199;28;20057;-74
2022/01/22 08:57:33;;;;;;;36.67;11.40;;;4.90;99.90;;;;;;5000850;28;20610;-75
2022/01/22 09:00:06;;;;;;;51.08;15.07;;;5.00;99.90;;;;;;5014815;28;20051;-74
2022/01/22 09:02:40;;;;;;;29.02;10.82;;;5.00;99.90;;;;;;4998317;28;20108;-74
2022/01/22 09:05:25;;;;;;;32.63;11.88;;;5.00;99.90;;;;;;5020656;28;20223;-75
2022/01/22 09:08:18;;;;;;;41.05;12.75;;;5.00;99.90;;;;;;4997577;28;20496;-73
2022/01/22 09:11:03;;;;;;;40.30;12.55;;;5.00;99.90;;;;;;4999622;28;20068;-76
2022/01/22 09:14:04;;;;;;;39.90;13.48;;;5.00;99.90;;;;;;4984196;28;20172;-76
2022/01/22 09:16:38;;;;;;;41.65;13.98;;;5.00;99.90;;;;;;4994083;28;20045;-76
2022/01/22 09:19:09;;;;;;;33.63;12.20;;;5.00;99.90;;;;;;5002322;28;20296;-73
2022/01/22 09:21:38;;;;;;;35.95;11.52;;;5.00;99.90;;;;;;5000748;28;20055;-75
2022/01/22 09:24:05;;;;;;;35.30;12.50;;;5.00;99.90;;;;;;4997314;28;20124;-74
2022/01/22 09:26:32;;;;;;;37.30;11.88;;;5.00;99.90;;;;;;4999986;28;20058;-74
2022/01/22 09:29:00;;;;;;;35.55;11.93;;;5.00;99.90;;;;;;5002005;28;20173;-74
2022/01/22 09:31:31;;;;;;;28.77;10.75;;;5.00;99.90;;;;;;5007604;28;20049;-74
2022/01/22 09:34:01;;;;;;;23.83;9.15;;;5.10;99.90;;;;;;5001528;28;20104;-74
2022/01/22 09:36:54;;;;;;;18.08;6.63;;;5.00;99.90;;;;;;5002356;28;20518;-74
2022/01/22 09:39:44;;;;;;;21.70;8.73;;;5.10;99.90;;;;;;4985845;28;20938;-76
2022/01/22 09:42:38;;;;;;;23.08;7.95;;;5.10;99.90;;;;;;5004431;28;20148;-76
2022/01/22 09:45:31;;;;;;;11.40;4.57;;;5.20;99.90;;;;;;4999883;28;20507;-75
2022/01/22 09:48:08;;;;;;;12.95;4.97;;;5.30;99.90;;;;;;4996920;28;20526;-75
2022/01/22 09:50:38;;;;;;;12.07;5.22;;;5.30;99.90;;;;;;5000084;28;20572;-76
2022/01/22 09:53:40;;;;;;;10.40;4.10;;;5.30;99.90;;;;;;4985590;28;20050;-76
2022/01/22 09:56:44;;;;;;;13.15;5.00;;;5.20;99.90;;;;;;4997188;28;20342;-76
2022/01/22 09:59:24;;;;;;;14.13;5.00;;;5.30;99.90;;;;;;4970805;28;20089;-76
2022/01/22 10:02:38;;;;;;;16.67;5.97;;;5.30;99.90;;;;;;4918951;29;20507;-78
2022/01/22 10:05:05;;;;;;;23.95;9.32;;;5.20;99.90;;;;;;4921589;29;20207;-75
2022/01/22 10:07:52;;;;;;;31.85;11.75;;;5.20;99.90;;;;;;4976332;28;20049;-75
2022/01/22 10:10:40;;;;;;;33.72;11.25;;;5.20;99.90;;;;;;5004442;28;20065;-75
2022/01/22 10:13:52;;;;;;;30.33;11.20;;;5.20;99.90;;;;;;5002778;28;20539;-76
2022/01/22 10:16:22;;;;;;;23.88;10.30;;;5.30;99.90;;;;;;5002381;28;20049;-76
2022/01/22 10:19:15;;;;;;;26.15;9.38;;;5.30;99.90;;;;;;5011187;28;20053;-76
2022/01/22 10:21:56;;;;;;;29.67;10.77;;;5.40;99.90;;;;;;5021364;28;20045;-76
2022/01/22 10:24:41;;;;;;;27.48;8.95;;;5.40;99.90;;;;;;5040826;28;20564;-76
2022/01/22 10:27:25;;;;;;;33.28;10.63;;;5.30;99.90;;;;;;4985739;28;20199;-75
2022/01/22 10:30:01;;;;;;;32.38;12.27;;;5.30;99.90;;;;;;5008635;28;20049;-76
2022/01/22 10:35:27;;;;;;;22.88;9.18;;;5.30;99.90;;;;;;5023017;28;20053;-75
2022/01/22 10:38:53;;;;;;;17.05;6.53;;;5.20;99.90;;;;;;5008686;28;20447;-78
2022/01/22 10:41:34;;;;;;;14.02;5.80;;;5.20;99.90;;;;;;4996655;28;20516;-75
2022/01/22 10:44:01;;;;;;;14.30;6.47;;;5.20;99.90;;;;;;5001121;28;20058;-75
2022/01/22 10:47:20;;;;;;;16.70;7.45;;;5.20;99.90;;;;;;4995802;28;20069;-76
2022/01/22 10:49:24;;;;;;;18.05;7.90;;;5.20;99.90;;;;;;5000198;28;20057;-76
2022/01/22 10:51:53;;;;;;;23.80;8.73;;;5.10;99.90;;;;;;5001210;28;20057;-75
2022/01/22 10:54:22;;;;;;;25.80;9.60;;;5.20;99.90;;;;;;5001870;28;20041;-76
2022/01/22 10:56:50;;;;;;;17.67;7.53;;;5.20;99.90;;;;;;5001142;28;20053;-76
2022/01/22 10:59:20;;;;;;;22.52;9.55;;;5.20;99.90;;;;;;5003664;28;20045;-76
2022/01/22 11:01:56;;;;;;;27.27;9.65;;;5.10;99.90;;;;;;5021537;28;20469;-75
2022/01/22 11:04:26;;;;;;;33.03;9.95;;;5.20;99.90;;;;;;4997198;28;20117;-75
2022/01/22 11:06:57;;;;;;;23.10;9.35;;;5.20;99.90;;;;;;5000782;28;20416;-75
2022/01/22 11:09:45;;;;;;;19.73;8.60;;;5.20;99.90;;;;;;5001535;28;20508;-75
2022/01/22 11:12:12;;;;;;;19.45;9.32;;;5.10;99.90;;;;;;4987808;28;20405;-75
2022/01/22 11:14:41;;;;;;;26.45;11.63;;;5.20;99.90;;;;;;5005735;28;20352;-75
2022/01/22 11:17:10;;;;;;;26.08;11.00;;;5.20;99.90;;;;;;5005539;28;20057;-75
2022/01/22 11:19:40;;;;;;;27.30;11.55;;;5.20;99.90;;;;;;5039459;28;20497;-74
2022/01/22 11:22:08;;;;;;;30.33;12.32;;;5.20;99.90;;;;;;5024868;28;20076;-74
2022/01/22 11:24:38;;;;;;;25.52;11.52;;;5.20;99.90;;;;;;5025702;28;20049;-74
2022/01/22 11:27:07;;;;;;;24.38;9.95;;;5.20;99.90;;;;;;5004837;28;20118;-75
2022/01/22 11:29:53;;;;;;;19.13;9.75;;;5.20;99.90;;;;;;5017455;28;20103;-74
2022/01/22 11:32:39;;;;;;;28.17;11.73;;;5.30;99.90;;;;;;5002626;28;20686;-75
2022/01/22 11:35:08;;;;;;;30.23;13.75;;;5.30;99.90;;;;;;5000759;28;20053;-75
2022/01/22 11:37:38;;;;;;;27.08;12.00;;;5.40;99.90;;;;;;5022723;28;20172;-74
2022/01/22 11:40:10;;;;;;;22.77;10.65;;;5.40;99.90;;;;;;4999847;28;20057;-74
2022/01/22 11:43:00;;;;;;;27.23;11.25;;;5.40;99.90;;;;;;5017136;28;20271;-74
2022/01/22 11:45:42;;;;;;;19.05;8.85;;;5.40;99.90;;;;;;5016225;28;20103;-75
2022/01/22 11:48:27;;;;;;;13.45;6.93;;;5.40;99.90;;;;;;5003528;28;20045;-74
2022/01/22 11:50:56;;;;;;;14.38;6.22;;;5.40;99.90;;;;;;5003710;28;20180;-75
2022/01/22 11:53:27;;;;;;;12.50;5.93;;;5.40;99.90;;;;;;5022669;28;20153;-76
2022/01/22 11:56:25;;;;;;;11.70;5.82;;;5.30;99.90;;;;;;5004625;28;20057;-76
2022/01/22 11:58:59;;;;;;;9.98;5.32;;;5.40;99.90;;;;;;5022638;28;20049;-76
2022/01/22 12:01:51;;;;;;;10.85;5.07;;;5.40;99.90;;;;;;5008290;28;20057;-75
2022/01/22 12:04:28;;;;;;;9.75;5.65;;;5.40;99.90;;;;;;5008196;28;20172;-76
2022/01/22 12:07:04;;;;;;;11.07;4.88;;;5.30;99.90;;;;;;5009974;28;20268;-76
2022/01/22 12:09:42;;;;;;;11.25;4.88;;;5.40;99.90;;;;;;5002439;28;20041;-76
2022/01/22 12:15:49;;;;;;;12.18;7.03;;;5.40;99.90;;;;;;5020128;28;20045;-76
2022/01/22 12:18:18;;;;;;;12.20;6.50;;;5.40;99.90;;;;;;4998696;28;20054;-75
2022/01/22 12:23:30;;;;;;;9.70;5.93;;;5.40;99.90;;;;;;5000647;28;20054;-75
2022/01/22 12:26:02;;;;;;;8.65;5.25;;;5.50;99.90;;;;;;5015686;28;20074;-78
2022/01/22 12:28:40;;;;;;;7.47;3.63;;;5.50;99.90;;;;;;5003244;28;20053;-74
2022/01/22 12:31:15;;;;;;;9.55;5.22;;;5.40;99.90;;;;;;5023384;28;20067;-75
2022/01/22 12:33:53;;;;;;;10.98;6.60;;;5.40;99.90;;;;;;5022016;28;20129;-75
2022/01/22 12:36:38;;;;;;;13.90;6.68;;;5.50;99.90;;;;;;4972334;28;20353;-74
2022/01/22 12:39:16;;;;;;;12.82;7.80;;;5.40;99.90;;;;;;5021236;28;20475;-74
2022/01/22 12:41:51;;;;;;;11.52;7.28;;;5.50;99.90;;;;;;4998139;28;20050;-75
2022/01/22 12:44:32;;;;;;;12.13;5.47;;;5.50;99.90;;;;;;5003569;28;20463;-75
2022/01/22 12:47:06;;;;;;;11.07;6.00;;;5.50;99.90;;;;;;4992764;28;20053;-75
2022/01/22 12:49:36;;;;;;;11.77;7.20;;;5.40;99.90;;;;;;5065840;23;20068;-74
2022/01/22 12:52:13;;;;;;;12.45;7.03;;;5.40;99.90;;;;;;5040908;28;20047;-74
2022/01/22 12:54:45;;;;;;;15.13;7.82;;;5.50;99.90;;;;;;5083145;28;20404;-74
2022/01/22 12:57:20;;;;;;;11.60;5.97;;;5.50;99.90;;;;;;5101693;28;20449;-74
2022/01/22 12:59:53;;;;;;;8.45;5.80;;;5.50;99.90;;;;;;5071960;28;20055;-74
2022/01/22 13:02:51;;;;;;;10.40;6.13;;;5.40;99.90;;;;;;5099890;28;20059;-75
2022/01/22 13:05:20;;;;;;;11.75;6.60;;;5.30;99.90;;;;;;5082602;28;20047;-74
2022/01/22 13:08:07;;;;;;;11.43;6.97;;;5.30;99.90;;;;;;5065692;28;20059;-74
2022/01/22 13:10:54;;;;;;;12.93;7.47;;;5.40;99.90;;;;;;5090244;28;20879;-74
2022/01/22 13:13:29;;;;;;;13.13;7.18;;;5.40;99.90;;;;;;5083801;28;20307;-75
2022/01/22 13:16:17;;;;;;;10.57;6.55;;;5.30;99.90;;;;;;5099884;28;20051;-75
2022/01/22 13:18:59;;;;;;;9.38;5.47;;;5.30;99.90;;;;;;5071918;28;20451;-75
2022/01/22 13:21:32;;;;;;;11.88;6.93;;;5.30;99.90;;;;;;5080929;28;20285;-74
2022/01/22 13:24:05;;;;;;;11.75;6.53;;;5.40;99.90;;;;;;5063245;28;20464;-74
2022/01/22 13:26:46;;;;;;;12.60;8.50;;;5.30;99.90;;;;;;5049437;28;20138;-74
2022/01/22 13:29:18;;;;;;;11.40;7.25;;;5.40;99.90;;;;;;5041995;28;20070;-74
2022/01/22 13:38:25;;;;;;;11.73;8.35;;;5.30;99.90;;;;;;5098812;28;20081;-74
2022/01/22 13:49:26;;;;;;;8.90;5.95;;;5.20;99.90;;;;;;5079485;28;20054;-75
2022/01/22 13:52:00;;;;;;;7.97;4.63;;;5.20;99.90;;;;;;5060647;28;20157;-74
2022/01/22 13:54:33;;;;;;;10.93;6.13;;;5.10;99.90;;;;;;5062019;28;20084;-74
2022/01/22 13:57:05;;;;;;;10.45;6.90;;;5.10;99.90;;;;;;5062198;28;20164;-74
2022/01/22 13:59:41;;;;;;;11.75;6.97;;;5.20;99.90;;;;;;5085795;28;20035;-74
2022/01/22 14:04:59;;;;;;;13.10;8.45;;;5.20;99.90;;;;;;5080088;28;20048;-74
2022/01/22 14:07:45;;;;;;;11.00;6.82;;;5.20;99.90;;;;;;5083148;28;20142;-74
2022/01/22 14:10:12;;;;;;;9.82;7.03;;;5.20;99.90;;;;;;5072277;28;20148;-74
2022/01/22 14:13:27;;;;;;;11.35;7.78;;;5.20;99.90;;;;;;5062774;28;20118;-73
2022/01/22 14:15:30;;;;;;;10.27;7.05;;;5.20;99.90;;;;;;5063093;28;20056;-74
2022/01/22 14:18:14;;;;;;;11.13;7.22;;;5.10;99.90;;;;;;5064939;28;20136;-74
2022/01/22 14:20:47;;;;;;;11.98;6.72;;;5.20;99.90;;;;;;5061477;28;20109;-74
2022/01/22 14:23:24;;;;;;;9.25;5.85;;;5.20;99.90;;;;;;5061676;28;20077;-74
2022/01/22 14:26:05;;;;;;;7.07;5.55;;;5.10;99.90;;;;;;5079312;28;20048;-74
2022/01/22 14:28:57;;;;;;;10.95;4.80;;;5.20;99.90;;;;;;5079856;28;20131;-74
2022/01/22 14:31:30;;;;;;;10.60;6.28;;;5.00;99.90;;;;;;5085371;28;20036;-74
2022/01/22 14:34:02;;;;;;;7.72;4.03;;;5.00;99.90;;;;;;5080059;28;20533;-75
2022/01/22 14:36:37;;;;;;;8.10;4.38;;;5.00;99.90;;;;;;5060528;28;20518;-75
2022/01/22 14:39:28;;;;;;;8.43;4.22;;;5.00;99.90;;;;;;5075150;28;20127;-74
2022/01/22 14:44:51;;;;;;;7.65;4.38;;;4.90;99.90;;;;;;5061524;28;20117;-74
2022/01/22 14:47:18;;;;;;;10.38;5.47;;;5.00;99.90;;;;;;5082952;28;20125;-75
2022/01/22 14:49:50;;;;;;;9.25;4.88;;;5.00;99.90;;;;;;5076153;28;20112;-75
2022/01/22 14:52:20;;;;;;;9.55;5.35;;;5.00;99.90;;;;;;5085192;28;20234;-75
2022/01/22 14:54:49;;;;;;;11.38;5.93;;;5.00;99.90;;;;;;5085449;28;20521;-74
2022/01/22 14:57:20;;;;;;;11.35;6.13;;;5.00;99.90;;;;;;5070278;28;20138;-74
2022/01/22 14:59:47;;;;;;;11.38;6.45;;;5.10;99.90;;;;;;5088320;28;20181;-74
2022/01/22 15:02:15;;;;;;;10.82;6.03;;;5.00;99.90;;;;;;5088070;28;20522;-75
2022/01/22 15:04:43;;;;;;;9.15;5.90;;;5.00;99.90;;;;;;5065616;28;20400;-74
2022/01/22 15:07:13;;;;;;;9.38;6.35;;;5.00;99.90;;;;;;5065610;28;20089;-75
2022/01/22 15:09:42;;;;;;;12.18;6.75;;;5.10;99.90;;;;;;5086277;28;20485;-75
2022/01/22 15:12:10;;;;;;;10.32;5.50;;;5.10;99.90;;;;;;5083920;28;20368;-75
2022/01/22 15:14:38;;;;;;;11.57;6.85;;;5.00;99.90;;;;;;5066089;28;20097;-75
2022/01/22 15:19:38;;;;;;;14.77;9.55;;;5.10;99.90;;;;;;5084156;28;20056;-74
2022/01/22 15:22:09;;;;;;;17.35;10.18;;;5.10;99.90;;;;;;5082902;28;20473;-75
2022/01/22 15:24:37;;;;;;;14.57;9.52;;;5.10;99.90;;;;;;5081568;28;20051;-74
2022/01/22 15:27:06;;;;;;;17.02;10.38;;;5.10;99.90;;;;;;5082369;28;20131;-74